Monday, September 26, 2016, 9:49 PM EDT
Back to Local

KMPO, Mt Pocono Pocono Mountains

Location: Pocono Summit, PA, United States Lat: 41.133
Local Time: 9:49 PM EDT ( 1:49 GMT) Lon: -75.383
Time Zone: US/Eastern Elev: 1915 ft

Show me the last for .
Show Coded

Time T Td Feel RH Dir Speed Gust Alt SLP Vis Weather Sky Remarks
2016-09-26 20:53 58 48 - 69 190° 12 - 30.06 30.06 10 OVC024 None
2016-09-26 19:53 58 48 - 69 180° 9 - 30.06 30.06 10 OVC025 6-hr Min Temp (8pm): 57.9°F
6-hr Max Temp (8pm): 61.0°F
2016-09-26 18:53 58 49 - 71 180° 9 18 30.05 30.06 10 OVC023 None
2016-09-26 17:53 58 52 - 80 180° 10 20 30.06 30.07 10 OVC015 None
2016-09-26 16:53 58 51 - 77 180° 13 - 30.06 30.06 10 OVC017 None
2016-09-26 15:53 59 50 - 72 170° 13 - 30.08 30.09 10 OVC022 None
2016-09-26 14:53 60 48 - 64 190° 14 21 30.10 30.11 10 OVC027 None
2016-09-26 14:45 60 48 - 64 180° 10 - 30.10 - 10 OVC029 None
2016-09-26 13:53 61 48 - 62 190° 14 21 30.12 30.14 10 BKN031 OVC039 6-hr Min Temp (2pm): 48.9°F
6-hr Max Temp (2pm): 62.1°F
2016-09-26 12:53 60 44 - 55 190° 16 - 30.14 30.15 10 OVC034 None
2016-09-26 11:53 59 43 - 55 160° 14 - 30.15 30.16 10 BKN033 None
2016-09-26 10:53 57 43 - 59 130° 10 - 30.17 30.18 10 CLR None
2016-09-26 09:53 54 40 - 58 130° 9 - 30.17 30.18 10 CLR None
2016-09-26 08:53 51 38 - 60 120° 8 - 30.18 30.20 10 CLR None
2016-09-26 07:53 49 38 46 65 100° 7 - 30.18 30.20 10 CLR 6-hr Min Temp (8am): 35.1°F
6-hr Max Temp (8am): 48.9°F
2016-09-26 06:53 44 35 42 70 90° 5 - 30.18 30.19 10 CLR None
2016-09-26 05:53 42 35 39 75 100° 5 - 30.17 30.19 10 CLR None
2016-09-26 04:53 45 34 41 65 100° 7 - 30.17 30.18 10 CLR None
2016-09-26 03:53 41 34 38 75 100° 5 - 30.17 30.18 10 CLR None
2016-09-26 02:53 38 34 36 85 100° 3 - 30.18 30.20 10 CLR None
2016-09-26 01:53 37 34 - 88 - Calm - 30.20 30.22 10 CLR 6-hr Min Temp (2am): 36.0°F
6-hr Max Temp (2am): 48.9°F
2016-09-26 00:53 39 35 - 85 - Calm - 30.20 30.22 10 CLR 24-hr Min Temp (1am): 37.0°F
24-hr Max Temp (1am): 63.0°F
2016-09-25 23:53 41 36 - 82 - Calm - 30.20 30.21 10 CLR None
2016-09-25 22:53 43 36 - 76 - Calm - 30.20 30.21 10 CLR None
2016-09-25 21:53 45 37 44 73 340° 3 - 30.21 30.22 10 CLR None

Support USWX by starting your Amazon purchase here.